Boca Raton, FL (33487)

9:30 PM EST on December 18, 2014 (GMT -0500)
Bel Lido | Change Station
CLOSE
Current Station
Personal Weather Station
Location: Highland Beach, FL
Elevation: 10 ft
Nearby Weather Stations

Elev 10 ft 26.40 °N, 80.07 °W | Updated 1 second ago

Clear
Clear
66.9 °F
Feels Like 66.9 °F
N
2.3
Wind Variable Wind from North
Gusts 2.3 mph

Today
High -- | Low -- °F
--% Chance of Precip.
Yesterday
High -- | Low -- °F
Precip. -- in
7:02 AM 5:31 PM
Waning Crescent, 11% visible
Pressure 30.11 in
Visibility 10.0 miles
Clouds Clear
Dew Point 51 °F
Humidity 56%
Rainfall 0.00 in
Snow Depth Not available.
UV 0 out of 12
Pollen 3.90 out of 12
Air Quality Not available.
Flu Activity Not available.
METAR KPMP 190153Z 35003KT 10SM CLR 19/12 A3011 RMK AO2 SLP195 T01890122

More Conditions Fewer Conditions

Pressure 30.11 in
Visibility 10.0 miles
Clouds Clear
Dew Point 51 °F
Humidity 56%
Rainfall 0.00 in
Snow Depth Not available.
UV 0 out of 12
Pollen 3.90 out of 12
Air Quality Not available.
Flu Activity Not available.
METAR KPMP 190153Z 35003KT 10SM CLR 19/12 A3011 RMK AO2 SLP195 T01890122

More Conditions Fewer Conditions

10-Day Weather Forecast

Almanac

Astronomy

Dec. 18, 2014 Rise Set
Actual Time
Civil Twilight
Nautical Twilight
Astronomical Twilight
Moon
Length of Visible Light
Length of Day
Tomorrow will be .
, % of the Moon is Illuminated

Today's Extremes

State Highs State Lows

Community

WunderPhotos

Upload Photos

1,779,022 photos uploaded!

WunderBlogs® & News

Nearby

Air Quality

  Air Quality AQ Index Pollutant
Not available.

Snow Depth

Station Depth Elevation

Earthquake Activity

City Distance Mag. Time & Date
Minimum magnitude displayed is 2.5.

Coastal Water Temperatures

Place Temperature

Nearby Weather Stations